Time;durP1;ratioP1;P1;durP2;ratioP2;P2;SDS_P1;SDS_P2;PMS_P1;PMS_P2;Temp;Humidity;BMP_temperature;BMP_pressure;BME280_temperature;BME280_humidity;BME280_pressure;Samples;Min_cycle;Max_cycle;Signal;HPM_P1;HPM_P2
2022/01/17 00:01:34;;;;;;;22.83;3.33;;;;;;;;;;5049644;28;20532;-72
2022/01/17 00:04:02;;;;;;;29.85;3.92;;;;;;;;;;5049476;28;20794;-71
2022/01/17 00:06:27;;;;;;;19.17;4.15;;;;;;;;;;5049555;28;20503;-71
2022/01/17 00:08:53;;;;;;;27.67;4.13;;;;;;;;;;5049931;28;20037;-69
2022/01/17 00:11:18;;;;;;;25.70;4.22;;;;;;;;;;5050244;28;20141;-71
2022/01/17 00:13:45;;;;;;;27.63;3.55;;;;;;;;;;5050102;28;20259;-69
2022/01/17 00:16:15;;;;;;;29.42;3.83;;;;;;;;;;5050103;28;20055;-69
2022/01/17 00:21:12;;;;;;;20.95;3.50;;;;;;;;;;5050382;28;20443;-70
2022/01/17 00:23:41;;;;;;;25.20;4.13;;;;;;;;;;5047356;28;20575;-71
2022/01/17 00:26:09;;;;;;;26.17;4.32;;;;;;;;;;5082628;28;20035;-69
2022/01/17 00:28:34;;;;;;;24.17;3.08;;;;;;;;;;5049417;28;20047;-70
2022/01/17 00:31:01;;;;;;;31.40;4.28;;;;;;;;;;5081288;28;20036;-70
2022/01/17 00:33:27;;;;;;;31.90;4.03;;;;;;;;;;5047327;28;20326;-72
2022/01/17 00:35:52;;;;;;;31.70;4.43;;;;;;;;;;5047932;28;20040;-71
2022/01/17 00:38:17;;;;;;;29.63;3.80;;;;;;;;;;5048631;28;20107;-71
2022/01/17 00:40:43;;;;;;;24.08;3.65;;;;;;;;;;5064287;28;20198;-71
2022/01/17 00:43:11;;;;;;;32.22;3.30;;;;;;;;;;5048895;28;20020;-71
2022/01/17 00:45:39;;;;;;;20.77;3.55;;;;;;;;;;5048863;28;20422;-72
2022/01/17 00:48:04;;;;;;;27.35;3.42;;;;;;;;;;5049050;28;20028;-71
2022/01/17 00:50:31;;;;;;;23.85;3.80;;;;;;;;;;5048443;28;20492;-70
2022/01/17 00:52:57;;;;;;;20.23;3.03;;;;;;;;;;5048831;28;21957;-70
2022/01/17 00:55:22;;;;;;;18.42;3.35;;;;;;;;;;5048351;28;20259;-70
2022/01/17 00:57:47;;;;;;;22.80;3.40;;;;;;;;;;5049059;28;20032;-70
2022/01/17 01:00:15;;;;;;;17.00;2.78;;;;;;;;;;5030333;28;20373;-70
2022/01/17 01:02:43;;;;;;;16.13;3.15;;;;;;;;;;5049201;28;20043;-70
2022/01/17 01:05:11;;;;;;;20.92;2.70;;;;;;;;;;5048066;28;20025;-70
2022/01/17 01:07:39;;;;;;;29.40;3.60;;;;;;;;;;5048734;28;20028;-71
2022/01/17 01:10:10;;;;;;;19.63;2.83;;;;;;;;;;5048250;28;20036;-70
2022/01/17 01:12:38;;;;;;;23.90;3.25;;;;;;;;;;5046841;28;20036;-69
2022/01/17 01:15:05;;;;;;;25.13;4.00;;;;;;;;;;5048340;28;20063;-69
2022/01/17 01:17:34;;;;;;;25.13;3.53;;;;;;;;;;5080619;28;20029;-70
2022/01/17 01:21:01;;;;;;;25.90;3.70;;;;;;;;;;5048002;28;20507;-69
2022/01/17 01:28:20;;;;;;;33.72;3.78;;;;;;;;;;5047852;28;20025;-71
2022/01/17 01:30:51;;;;;;;27.40;3.30;;;;;;;;;;5048009;28;20060;-69
2022/01/17 01:33:24;;;;;;;28.67;3.60;;;;;;;;;;5029357;28;20024;-70
2022/01/17 01:35:56;;;;;;;23.20;3.95;;;;;;;;;;5046733;28;20036;-70
2022/01/17 01:38:22;;;;;;;20.40;3.30;;;;;;;;;;5048015;28;20028;-70
2022/01/17 01:40:47;;;;;;;26.65;3.38;;;;;;;;;;5048095;28;20606;-70
2022/01/17 01:43:13;;;;;;;23.80;3.72;;;;;;;;;;5046801;28;20029;-71
2022/01/17 01:45:39;;;;;;;29.08;3.95;;;;;;;;;;5048319;28;20024;-71
2022/01/17 01:48:05;;;;;;;25.85;3.40;;;;;;;;;;5047956;28;20039;-70
2022/01/17 01:50:31;;;;;;;29.48;3.47;;;;;;;;;;5080050;28;20070;-69
2022/01/17 01:52:58;;;;;;;32.50;3.80;;;;;;;;;;5047937;28;20826;-70
2022/01/17 01:55:24;;;;;;;31.10;3.85;;;;;;;;;;5047155;28;20107;-70
2022/01/17 01:57:50;;;;;;;23.52;3.88;;;;;;;;;;5047892;28;20028;-70
2022/01/17 02:00:16;;;;;;;33.60;3.72;;;;;;;;;;5047129;28;20119;-70
2022/01/17 02:02:41;;;;;;;26.63;4.15;;;;;;;;;;5047864;28;20149;-70
2022/01/17 02:05:07;;;;;;;25.00;3.13;;;;;;;;;;5046695;28;20220;-70
2022/01/17 02:07:33;;;;;;;26.23;3.35;;;;;;;;;;5047580;28;20043;-70
2022/01/17 02:09:58;;;;;;;35.72;3.95;;;;;;;;;;5047459;28;20028;-70
2022/01/17 02:12:25;;;;;;;27.17;3.40;;;;;;;;;;5047180;28;20033;-71
2022/01/17 02:14:53;;;;;;;30.98;3.92;;;;;;;;;;5047212;28;20055;-70
2022/01/17 02:17:20;;;;;;;31.35;4.68;;;;;;;;;;5047162;28;20040;-70
2022/01/17 02:19:49;;;;;;;23.25;3.75;;;;;;;;;;5079019;28;21863;-71
2022/01/17 02:22:21;;;;;;;41.38;4.13;;;;;;;;;;5047346;28;20057;-70
2022/01/17 02:24:49;;;;;;;28.40;3.60;;;;;;;;;;5047438;28;20079;-68
2022/01/17 02:27:14;;;;;;;27.13;3.55;;;;;;;;;;5047082;28;20035;-68
2022/01/17 02:29:39;;;;;;;37.20;4.10;;;;;;;;;;5029548;28;20034;-69
2022/01/17 02:32:05;;;;;;;27.88;3.75;;;;;;;;;;5047513;28;20213;-68
2022/01/17 02:34:30;;;;;;;30.75;4.00;;;;;;;;;;5047388;28;20028;-68
2022/01/17 02:36:56;;;;;;;31.80;4.45;;;;;;;;;;5046692;28;20102;-68
2022/01/17 02:39:21;;;;;;;26.42;3.70;;;;;;;;;;5045128;28;20421;-70
2022/01/17 02:41:51;;;;;;;44.22;4.90;;;;;;;;;;5047223;28;20082;-68
2022/01/17 02:44:16;;;;;;;37.15;4.10;;;;;;;;;;5047012;28;20028;-68
2022/01/17 02:46:45;;;;;;;36.92;5.05;;;;;;;;;;5046807;28;20345;-68
2022/01/17 02:49:10;;;;;;;38.03;4.38;;;;;;;;;;5044688;28;20021;-69
2022/01/17 02:51:36;;;;;;;40.80;4.35;;;;;;;;;;5047471;28;20315;-69
2022/01/17 02:54:02;;;;;;;27.23;5.47;;;;;;;;;;5046184;28;20044;-69
2022/01/17 02:56:28;;;;;;;25.15;3.85;;;;;;;;;;5046933;28;20145;-69
2022/01/17 02:58:54;;;;;;;32.28;3.92;;;;;;;;;;5046724;28;20028;-69
2022/01/17 03:01:20;;;;;;;28.60;5.00;;;;;;;;;;5047201;28;20040;-68
2022/01/17 03:03:47;;;;;;;37.25;5.72;;;;;;;;;;5046850;28;20284;-68
2022/01/17 03:06:17;;;;;;;35.92;4.75;;;;;;;;;;5046856;28;20184;-68
2022/01/17 03:08:43;;;;;;;30.67;4.55;;;;;;;;;;5046933;28;20120;-67
2022/01/17 03:11:10;;;;;;;25.95;4.53;;;;;;;;;;5046633;28;20039;-68
2022/01/17 03:13:37;;;;;;;29.42;4.68;;;;;;;;;;5051208;28;20111;-69
2022/01/17 03:16:04;;;;;;;30.05;5.00;;;;;;;;;;5078485;28;20752;-68
2022/01/17 03:18:36;;;;;;;35.53;5.35;;;;;;;;;;5046388;28;20190;-68
2022/01/17 03:21:02;;;;;;;36.00;5.18;;;;;;;;;;5046110;28;20056;-67
2022/01/17 03:23:28;;;;;;;38.15;5.28;;;;;;;;;;5047002;28;20078;-68
2022/01/17 03:25:56;;;;;;;31.67;4.28;;;;;;;;;;5047240;28;20116;-68
2022/01/17 03:28:22;;;;;;;36.60;5.00;;;;;;;;;;5041314;28;20502;-69
2022/01/17 03:30:47;;;;;;;33.33;5.22;;;;;;;;;;5046943;28;20029;-68
2022/01/17 03:33:14;;;;;;;31.60;5.00;;;;;;;;;;5045980;28;20464;-69
2022/01/17 03:35:39;;;;;;;31.95;5.90;;;;;;;;;;5047590;28;20038;-69
2022/01/17 03:38:06;;;;;;;31.02;5.55;;;;;;;;;;5041236;28;20028;-69
2022/01/17 03:40:31;;;;;;;46.72;6.80;;;;;;;;;;5047148;28;20102;-69
2022/01/17 03:42:59;;;;;;;36.70;5.45;;;;;;;;;;5046209;28;20059;-69
2022/01/17 03:45:25;;;;;;;37.17;5.50;;;;;;;;;;5046461;28;20024;-69
2022/01/17 03:47:52;;;;;;;27.45;5.45;;;;;;;;;;5046445;28;20024;-68
2022/01/17 03:50:19;;;;;;;27.50;5.03;;;;;;;;;;5030010;28;20035;-69
2022/01/17 03:52:45;;;;;;;39.55;6.10;;;;;;;;;;5046183;28;20040;-69
2022/01/17 03:55:12;;;;;;;30.40;5.78;;;;;;;;;;5046860;28;20017;-68
2022/01/17 03:57:37;;;;;;;38.95;6.47;;;;;;;;;;5046218;28;20045;-68
2022/01/17 04:00:07;;;;;;;36.15;6.20;;;;;;;;;;5046452;28;20063;-69
2022/01/17 04:02:35;;;;;;;34.72;6.25;;;;;;;;;;5045007;28;20218;-68
2022/01/17 04:05:01;;;;;;;39.83;7.43;;;;;;;;;;5046215;28;20024;-68
2022/01/17 04:07:26;;;;;;;49.40;7.70;;;;;;;;;;5049303;28;20095;-67
2022/01/17 04:09:52;;;;;;;35.08;7.25;;;;;;;;;;5050046;28;20622;-68
2022/01/17 04:12:19;;;;;;;34.50;7.00;;;;;;;;;;5049684;28;20068;-68
2022/01/17 04:14:54;;;;;;;44.67;7.60;;;;;;;;;;5049391;28;20575;-68
2022/01/17 04:17:19;;;;;;;34.95;7.05;;;;;;;;;;5049250;28;20714;-68
2022/01/17 04:19:52;;;;;;;37.72;7.70;;;;;;;;;;5049328;28;20021;-68
2022/01/17 04:22:17;;;;;;;34.22;7.10;;;;;;;;;;5049235;28;20053;-67
2022/01/17 04:24:42;;;;;;;43.08;8.85;;;;;;;;;;5049957;28;20040;-68
2022/01/17 04:27:10;;;;;;;36.00;7.28;;;;;;;;;;5049535;28;20062;-68
2022/01/17 04:29:38;;;;;;;45.47;7.88;;;;;;;;;;5049656;28;20033;-71
2022/01/17 04:32:07;;;;;;;38.13;8.13;;;;;;;;;;5047669;28;20036;-68
2022/01/17 04:34:34;;;;;;;36.05;8.20;;;;;;;;;;5081235;28;20052;-68
2022/01/17 04:37:02;;;;;;;40.53;8.35;;;;;;;;;;5044859;28;20166;-68
2022/01/17 04:39:28;;;;;;;42.70;9.52;;;;;;;;;;5050075;28;20504;-68
2022/01/17 04:41:57;;;;;;;46.08;10.70;;;;;;;;;;5049179;28;20468;-68
2022/01/17 04:47:09;;;;;;;50.70;13.63;;;;;;;;;;5049208;28;20115;-69
2022/01/17 04:49:34;;;;;;;35.15;13.15;;;;;;;;;;5047208;28;20102;-68
2022/01/17 04:52:01;;;;;;;44.88;14.70;;;;;;;;;;5049179;28;20479;-69
2022/01/17 04:54:44;;;;;;;44.67;14.98;;;;;;;;;;5049348;28;20028;-68
2022/01/17 04:57:14;;;;;;;50.00;15.65;;;;;;;;;;5049224;28;20036;-68
2022/01/17 04:59:40;;;;;;;48.55;16.27;;;;;;;;;;5048529;28;20475;-68
2022/01/17 05:02:06;;;;;;;47.25;16.83;;;;;;;;;;5049138;28;20182;-68
2022/01/17 05:04:34;;;;;;;55.00;18.25;;;;;;;;;;5048435;28;20487;-69
2022/01/17 05:06:59;;;;;;;48.92;17.85;;;;;;;;;;5044203;28;20519;-69
2022/01/17 05:09:25;;;;;;;47.10;17.98;;;;;;;;;;5047849;28;20054;-69
2022/01/17 05:11:51;;;;;;;47.30;18.00;;;;;;;;;;5049017;28;20024;-69
2022/01/17 05:14:19;;;;;;;48.63;19.00;;;;;;;;;;5048752;28;20122;-69
2022/01/17 05:16:58;;;;;;;49.92;18.92;;;;;;;;;;5048343;28;20169;-69
2022/01/17 05:22:10;;;;;;;50.47;16.25;;;;;;;;;;5048598;28;20520;-67
2022/01/17 05:24:35;;;;;;;44.35;14.68;;;;;;;;;;5048802;28;20278;-68
2022/01/17 05:27:01;;;;;;;40.63;13.48;;;;;;;;;;5046467;28;20058;-68
2022/01/17 05:29:26;;;;;;;45.88;12.48;;;;;;;;;;5048427;28;20032;-67
2022/01/17 05:31:52;;;;;;;45.35;11.43;;;;;;;;;;5063670;28;20128;-68
2022/01/17 05:34:20;;;;;;;41.42;10.50;;;;;;;;;;5047761;28;20525;-68
2022/01/17 05:36:48;;;;;;;43.22;10.77;;;;;;;;;;5079775;28;20040;-68
2022/01/17 05:39:16;;;;;;;50.33;10.82;;;;;;;;;;5048553;28;20037;-68
2022/01/17 05:41:42;;;;;;;42.50;10.60;;;;;;;;;;5047752;28;20684;-68
2022/01/17 05:44:07;;;;;;;41.08;10.65;;;;;;;;;;5047843;28;20115;-68
2022/01/17 05:46:33;;;;;;;39.30;10.38;;;;;;;;;;5046426;28;20040;-69
2022/01/17 05:49:01;;;;;;;36.47;10.43;;;;;;;;;;5079518;28;20133;-68
2022/01/17 05:51:27;;;;;;;64.15;11.02;;;;;;;;;;5048333;28;20033;-68
2022/01/17 05:53:54;;;;;;;52.88;10.82;;;;;;;;;;5048067;28;20391;-68
2022/01/17 05:56:22;;;;;;;34.72;9.45;;;;;;;;;;5048038;28;20047;-68
2022/01/17 05:58:47;;;;;;;44.45;10.90;;;;;;;;;;5048018;28;20119;-68
2022/01/17 06:01:14;;;;;;;35.72;9.98;;;;;;;;;;5046090;28;20029;-67
2022/01/17 06:03:39;;;;;;;39.15;8.95;;;;;;;;;;5079397;28;20208;-68
2022/01/17 06:06:06;;;;;;;55.42;10.30;;;;;;;;;;5048097;28;20024;-68
2022/01/17 06:08:34;;;;;;;36.15;8.32;;;;;;;;;;5063080;28;20159;-68
2022/01/17 06:11:02;;;;;;;43.38;7.88;;;;;;;;;;5048313;28;20036;-70
2022/01/17 06:13:27;;;;;;;42.28;8.43;;;;;;;;;;5047603;28;20680;-69
2022/01/17 06:15:53;;;;;;;36.05;7.22;;;;;;;;;;5046421;28;20093;-69
2022/01/17 06:18:18;;;;;;;47.65;7.85;;;;;;;;;;5047070;28;20105;-70
2022/01/17 06:20:43;;;;;;;43.53;8.38;;;;;;;;;;5047325;28;20123;-68
2022/01/17 06:23:09;;;;;;;45.85;7.80;;;;;;;;;;5045859;28;20041;-69
2022/01/17 06:25:34;;;;;;;47.15;7.30;;;;;;;;;;5045954;28;20285;-69
2022/01/17 06:27:59;;;;;;;45.38;7.25;;;;;;;;;;5047124;28;20036;-69
2022/01/17 06:30:26;;;;;;;43.88;7.20;;;;;;;;;;5046932;28;20109;-69
2022/01/17 06:32:51;;;;;;;42.50;6.28;;;;;;;;;;5078778;28;20032;-68
2022/01/17 06:35:16;;;;;;;39.30;6.20;;;;;;;;;;5024541;28;20024;-68
2022/01/17 06:37:44;;;;;;;37.22;6.40;;;;;;;;;;5047502;28;20325;-69
2022/01/17 06:40:12;;;;;;;45.15;7.10;;;;;;;;;;5046540;28;20097;-69
2022/01/17 06:42:37;;;;;;;41.25;6.95;;;;;;;;;;5047209;28;20617;-69
2022/01/17 06:45:04;;;;;;;44.97;7.55;;;;;;;;;;5046731;28;20528;-68
2022/01/17 06:47:33;;;;;;;46.90;6.93;;;;;;;;;;5046570;28;20024;-68
2022/01/17 06:49:58;;;;;;;39.90;6.65;;;;;;;;;;5047012;28;20779;-69
2022/01/17 06:52:24;;;;;;;54.22;7.88;;;;;;;;;;5045266;28;20119;-69
2022/01/17 06:54:52;;;;;;;41.30;6.50;;;;;;;;;;5047917;28;20060;-68
2022/01/17 06:57:18;;;;;;;42.55;7.40;;;;;;;;;;5047225;28;20197;-68
2022/01/17 06:59:46;;;;;;;51.30;6.97;;;;;;;;;;5046868;28;20021;-69
2022/01/17 07:02:14;;;;;;;38.17;7.25;;;;;;;;;;5044527;28;20045;-69
2022/01/17 07:04:40;;;;;;;41.17;7.00;;;;;;;;;;5046687;28;20028;-69
2022/01/17 07:07:05;;;;;;;45.72;6.75;;;;;;;;;;5047001;28;20033;-68
2022/01/17 07:09:30;;;;;;;44.22;6.47;;;;;;;;;;5050791;28;20040;-69
2022/01/17 07:11:58;;;;;;;49.88;7.47;;;;;;;;;;5047050;28;20047;-68
2022/01/17 07:14:25;;;;;;;39.45;6.07;;;;;;;;;;5046860;28;20032;-69
2022/01/17 07:16:50;;;;;;;51.92;6.53;;;;;;;;;;5046328;28;20155;-70
2022/01/17 07:19:15;;;;;;;42.25;5.63;;;;;;;;;;5046316;28;20025;-68
2022/01/17 07:21:43;;;;;;;38.15;6.47;;;;;;;;;;5046567;28;20177;-68
2022/01/17 07:24:09;;;;;;;43.47;6.22;;;;;;;;;;5046473;28;20041;-69
2022/01/17 07:26:34;;;;;;;38.20;6.43;;;;;;;;;;5079661;28;20518;-69
2022/01/17 07:29:01;;;;;;;45.92;7.28;;;;;;;;;;5045074;28;20067;-69
2022/01/17 07:31:26;;;;;;;54.72;6.63;;;;;;;;;;5046514;28;20037;-68
2022/01/17 07:33:51;;;;;;;37.92;6.85;;;;;;;;;;5061403;28;20028;-69
2022/01/17 07:36:20;;;;;;;42.75;6.75;;;;;;;;;;5046411;28;20050;-70
2022/01/17 07:38:47;;;;;;;43.55;6.22;;;;;;;;;;5046626;28;20036;-68
2022/01/17 07:41:12;;;;;;;53.67;7.60;;;;;;;;;;5047996;28;20132;-68
2022/01/17 07:43:39;;;;;;;46.20;8.25;;;;;;;;;;5045246;28;20035;-68
2022/01/17 07:46:18;;;;;;;48.88;6.95;;;;;;;;;;5048608;28;20429;-68
2022/01/17 07:51:27;;;;;;;47.25;7.20;;;;;;;;;;5049887;28;20641;-68
2022/01/17 07:53:56;;;;;;;43.75;7.55;;;;;;;;;;5050463;28;20032;-69
2022/01/17 07:56:22;;;;;;;43.00;6.43;;;;;;;;;;5067012;28;21957;-68
2022/01/17 07:58:47;;;;;;;42.05;6.20;;;;;;;;;;5050641;28;20424;-68
2022/01/17 08:01:15;;;;;;;36.65;5.82;;;;;;;;;;5050093;28;20036;-68
2022/01/17 08:03:40;;;;;;;36.92;5.82;;;;;;;;;;5031590;28;20033;-69
2022/01/17 08:06:08;;;;;;;37.17;5.80;;;;;;;;;;5044646;28;20032;-68
2022/01/17 08:08:34;;;;;;;44.08;5.93;;;;;;;;;;5033337;28;20065;-68
2022/01/17 08:11:02;;;;;;;58.03;7.32;;;;;;;;;;5050330;28;20638;-68
2022/01/17 08:13:28;;;;;;;41.00;6.65;;;;;;;;;;5049369;28;20047;-69
2022/01/17 08:15:55;;;;;;;45.45;7.10;;;;;;;;;;5049831;28;20052;-69
2022/01/17 08:18:21;;;;;;;45.50;6.07;;;;;;;;;;5048998;28;20033;-69
2022/01/17 08:20:48;;;;;;;42.28;6.65;;;;;;;;;;5049436;28;20098;-68
2022/01/17 08:23:16;;;;;;;36.13;5.97;;;;;;;;;;5049486;28;20064;-68
2022/01/17 08:25:45;;;;;;;37.72;5.90;;;;;;;;;;5050238;28;20520;-68
2022/01/17 08:28:10;;;;;;;48.38;6.95;;;;;;;;;;5048564;28;20036;-68
2022/01/17 08:30:38;;;;;;;49.97;5.97;;;;;;;;;;5049748;28;21931;-68
2022/01/17 08:33:03;;;;;;;44.58;6.13;;;;;;;;;;5048641;28;20250;-68
2022/01/17 08:35:29;;;;;;;41.05;6.47;;;;;;;;;;5048676;28;20049;-68
2022/01/17 08:37:55;;;;;;;53.08;7.82;;;;;;;;;;5049473;28;20033;-71
2022/01/17 08:40:20;;;;;;;44.53;7.40;;;;;;;;;;5049555;28;20428;-71
2022/01/17 08:42:47;;;;;;;42.17;6.60;;;;;;;;;;5049190;28;20176;-70
2022/01/17 08:45:13;;;;;;;39.55;5.45;;;;;;;;;;5049316;28;20060;-70
2022/01/17 08:47:46;;;;;;;47.63;6.15;;;;;;;;;;5049519;28;20070;-68
2022/01/17 08:50:12;;;;;;;38.15;5.68;;;;;;;;;;5047009;28;20031;-68
2022/01/17 08:52:47;;;;;;;41.08;5.55;;;;;;;;;;5048120;28;20051;-70
2022/01/17 08:55:12;;;;;;;50.33;5.85;;;;;;;;;;5049242;28;20036;-68
2022/01/17 08:57:38;;;;;;;49.78;6.00;;;;;;;;;;5049048;28;20718;-68
2022/01/17 09:00:08;;;;;;;42.17;5.30;;;;;;;;;;5049012;28;20028;-68
2022/01/17 09:02:34;;;;;;;41.45;6.35;;;;;;;;;;5048697;28;20488;-69
2022/01/17 09:05:02;;;;;;;51.85;5.72;;;;;;;;;;5048162;28;22087;-69
2022/01/17 09:07:30;;;;;;;39.47;7.18;;;;;;;;;;5048800;28;20025;-69
2022/01/17 09:09:55;;;;;;;38.90;5.63;;;;;;;;;;5048748;28;20024;-69
2022/01/17 09:12:23;;;;;;;35.05;5.35;;;;;;;;;;5063007;28;20029;-69
2022/01/17 09:14:51;;;;;;;49.42;5.95;;;;;;;;;;5048781;28;20052;-68
2022/01/17 09:17:19;;;;;;;34.63;5.68;;;;;;;;;;5046814;28;20489;-68
2022/01/17 09:19:48;;;;;;;35.35;4.82;;;;;;;;;;5047980;28;20024;-68
2022/01/17 09:22:16;;;;;;;45.75;5.32;;;;;;;;;;5048308;28;20052;-68
2022/01/17 09:24:42;;;;;;;35.60;4.95;;;;;;;;;;5049529;28;20025;-68
2022/01/17 09:27:10;;;;;;;49.65;6.22;;;;;;;;;;5048639;28;20105;-68
2022/01/17 09:29:36;;;;;;;42.67;6.22;;;;;;;;;;5046958;28;20033;-69
2022/01/17 09:32:02;;;;;;;42.90;6.05;;;;;;;;;;5043117;28;20033;-68
2022/01/17 09:34:28;;;;;;;49.65;6.72;;;;;;;;;;5047147;28;20059;-68
2022/01/17 09:36:58;;;;;;;44.20;6.00;;;;;;;;;;5080626;28;20130;-68
2022/01/17 09:39:26;;;;;;;44.10;5.85;;;;;;;;;;5048725;28;20508;-68
2022/01/17 09:41:51;;;;;;;45.22;5.85;;;;;;;;;;5048073;28;20037;-68
2022/01/17 09:44:19;;;;;;;47.47;6.30;;;;;;;;;;5047418;28;20114;-68
2022/01/17 09:46:52;;;;;;;41.10;6.95;;;;;;;;;;5046546;28;20133;-68
2022/01/17 09:49:30;;;;;;;44.17;5.25;;;;;;;;;;5046962;28;20040;-68
2022/01/17 09:54:26;;;;;;;53.20;6.03;;;;;;;;;;5048345;28;20033;-68
2022/01/17 09:56:53;;;;;;;49.40;7.32;;;;;;;;;;5079687;28;20519;-69
2022/01/17 09:59:19;;;;;;;47.25;6.93;;;;;;;;;;5047875;28;20033;-68
2022/01/17 10:01:45;;;;;;;47.40;6.60;;;;;;;;;;5047826;28;20086;-68
2022/01/17 10:04:10;;;;;;;51.65;6.78;;;;;;;;;;5046781;28;20032;-69
2022/01/17 10:06:39;;;;;;;58.85;7.00;;;;;;;;;;5047573;28;20103;-67
2022/01/17 10:09:08;;;;;;;42.35;5.65;;;;;;;;;;5046340;28;20035;-68
2022/01/17 10:11:36;;;;;;;43.33;6.65;;;;;;;;;;5047315;28;20039;-68
2022/01/17 10:14:04;;;;;;;42.03;6.18;;;;;;;;;;5047231;28;20044;-68
2022/01/17 10:16:31;;;;;;;48.47;6.25;;;;;;;;;;5047678;28;20033;-69
2022/01/17 10:19:04;;;;;;;39.17;6.00;;;;;;;;;;5047054;28;20461;-70
2022/01/17 10:21:37;;;;;;;45.30;6.32;;;;;;;;;;5050839;28;20554;-68
2022/01/17 10:37:13;;;;;;;40.38;4.93;;;;;;;;;;5047989;28;20251;-67
2022/01/17 10:39:57;;;;;;;41.10;5.60;;;;;;;;;;5046928;28;20028;-68
2022/01/17 10:42:25;;;;;;;36.20;4.50;;;;;;;;;;5042655;28;20561;-68
2022/01/17 10:44:51;;;;;;;34.08;5.32;;;;;;;;;;5046326;28;20063;-68
2022/01/17 10:47:17;;;;;;;42.25;5.85;;;;;;;;;;5047092;28;20029;-69
2022/01/17 10:49:54;;;;;;;44.15;6.18;;;;;;;;;;5046171;28;20043;-69
2022/01/17 10:52:48;;;;;;;42.75;5.50;;;;;;;;;;5047209;28;20029;-67
2022/01/17 10:55:24;;;;;;;42.10;5.38;;;;;;;;;;5044370;28;20064;-68
2022/01/17 10:57:51;;;;;;;39.05;5.63;;;;;;;;;;5062581;28;20162;-67
2022/01/17 11:00:24;;;;;;;42.17;5.43;;;;;;;;;;5046630;28;20029;-68
2022/01/17 11:02:54;;;;;;;47.70;6.47;;;;;;;;;;5045248;28;20036;-68
2022/01/17 11:05:22;;;;;;;37.22;6.22;;;;;;;;;;5045743;28;20028;-67
2022/01/17 11:07:48;;;;;;;38.00;5.32;;;;;;;;;;5046779;28;20345;-67
2022/01/17 11:10:19;;;;;;;43.97;5.70;;;;;;;;;;5046197;28;20100;-69
2022/01/17 11:12:44;;;;;;;39.15;5.55;;;;;;;;;;5047165;28;20037;-68
2022/01/17 11:15:13;;;;;;;43.70;6.07;;;;;;;;;;5079179;28;20091;-68
2022/01/17 11:17:46;;;;;;;43.08;5.65;;;;;;;;;;5045782;28;20016;-68
2022/01/17 11:20:14;;;;;;;44.20;5.60;;;;;;;;;;5065980;28;20021;-68
2022/01/17 11:22:41;;;;;;;44.38;5.22;;;;;;;;;;5050286;28;20296;-69
2022/01/17 11:25:08;;;;;;;38.70;6.03;;;;;;;;;;5051519;28;20297;-68
2022/01/17 11:27:34;;;;;;;42.40;6.57;;;;;;;;;;5032723;28;20667;-69
2022/01/17 11:29:59;;;;;;;52.47;6.20;;;;;;;;;;5050650;28;20036;-69
2022/01/17 11:32:25;;;;;;;40.33;5.75;;;;;;;;;;5048883;28;20029;-69
2022/01/17 11:34:52;;;;;;;34.10;4.60;;;;;;;;;;5082538;28;20051;-69
2022/01/17 11:37:20;;;;;;;42.20;6.22;;;;;;;;;;5049897;28;20074;-68
2022/01/17 11:39:53;;;;;;;40.42;6.18;;;;;;;;;;5050929;28;20442;-69
2022/01/17 11:42:59;;;;;;;36.45;5.50;;;;;;;;;;5047217;28;20044;-68
2022/01/17 11:45:24;;;;;;;42.97;6.38;;;;;;;;;;5009659;28;20041;-68
2022/01/17 11:47:57;;;;;;;42.15;5.45;;;;;;;;;;5009434;28;20030;-68
2022/01/17 11:53:20;;;;;;;38.10;5.82;;;;;;;;;;5050273;28;20021;-68
2022/01/17 11:55:47;;;;;;;38.47;5.90;;;;;;;;;;5026419;28;20231;-68
2022/01/17 11:58:24;;;;;;;40.08;5.78;;;;;;;;;;5048896;28;20028;-68
2022/01/17 12:01:09;;;;;;;48.20;7.13;;;;;;;;;;5050002;28;20493;-68
2022/01/17 12:03:41;;;;;;;46.30;5.80;;;;;;;;;;5049561;28;20131;-70
2022/01/17 12:06:28;;;;;;;41.65;5.38;;;;;;;;;;5049097;28;20066;-68
2022/01/17 12:09:12;;;;;;;45.03;5.40;;;;;;;;;;5049991;28;20032;-68
2022/01/17 12:11:38;;;;;;;38.67;5.10;;;;;;;;;;5050097;28;20020;-68
2022/01/17 12:14:26;;;;;;;39.33;5.70;;;;;;;;;;5049853;28;20190;-68
2022/01/17 12:16:51;;;;;;;40.42;6.15;;;;;;;;;;5049800;28;20262;-68
2022/01/17 12:19:16;;;;;;;41.90;5.95;;;;;;;;;;5049619;28;20084;-68
2022/01/17 12:21:53;;;;;;;34.42;6.00;;;;;;;;;;5048761;28;20102;-70
2022/01/17 12:24:32;;;;;;;48.05;5.88;;;;;;;;;;5050413;28;20744;-70
2022/01/17 12:26:57;;;;;;;46.25;6.03;;;;;;;;;;5049505;28;20051;-69
2022/01/17 12:29:43;;;;;;;33.92;4.70;;;;;;;;;;5050045;28;20559;-69
2022/01/17 12:32:24;;;;;;;41.22;6.53;;;;;;;;;;5048939;28;20361;-70
2022/01/17 12:34:51;;;;;;;48.30;5.70;;;;;;;;;;5049109;28;20033;-69
2022/01/17 12:37:38;;;;;;;52.22;6.30;;;;;;;;;;5049575;28;20230;-69
2022/01/17 12:40:15;;;;;;;43.97;5.70;;;;;;;;;;5049659;28;20614;-69
2022/01/17 12:42:52;;;;;;;43.85;6.13;;;;;;;;;;5049407;28;20021;-70
2022/01/17 12:45:41;;;;;;;51.22;7.68;;;;;;;;;;5049752;28;20600;-69
2022/01/17 12:48:07;;;;;;;41.63;6.57;;;;;;;;;;5043107;28;20794;-71
2022/01/17 12:50:36;;;;;;;42.90;6.20;;;;;;;;;;5049810;28;20307;-69
2022/01/17 12:53:03;;;;;;;42.50;5.90;;;;;;;;;;5081443;28;20472;-69
2022/01/17 12:55:38;;;;;;;41.92;5.35;;;;;;;;;;5049719;28;20025;-69
2022/01/17 12:58:11;;;;;;;43.47;5.82;;;;;;;;;;5049236;28;20037;-69
2022/01/17 13:00:38;;;;;;;48.42;6.25;;;;;;;;;;5049269;28;20234;-69
2022/01/17 13:03:07;;;;;;;47.60;5.70;;;;;;;;;;5049065;28;20036;-68
2022/01/17 13:05:34;;;;;;;49.30;7.75;;;;;;;;;;5080812;28;20025;-68
2022/01/17 13:08:03;;;;;;;32.78;5.43;;;;;;;;;;5049718;28;20047;-68
2022/01/17 13:10:29;;;;;;;37.83;5.70;;;;;;;;;;5048982;28;20449;-68
2022/01/17 13:12:57;;;;;;;46.97;6.45;;;;;;;;;;5049219;28;20118;-68
2022/01/17 13:15:23;;;;;;;48.80;6.32;;;;;;;;;;5048495;28;20433;-69
2022/01/17 13:17:53;;;;;;;49.17;6.32;;;;;;;;;;5048857;28;20393;-70
2022/01/17 13:20:19;;;;;;;40.05;5.82;;;;;;;;;;5048311;28;20109;-69
2022/01/17 13:25:41;;;;;;;43.30;5.55;;;;;;;;;;5040973;28;20544;-69
2022/01/17 13:28:07;;;;;;;38.63;6.28;;;;;;;;;;5048420;28;20535;-68
2022/01/17 13:30:35;;;;;;;46.78;6.05;;;;;;;;;;5048148;28;20096;-68
2022/01/17 13:33:04;;;;;;;49.88;7.57;;;;;;;;;;5048144;28;20119;-68
2022/01/17 13:35:35;;;;;;;50.83;7.35;;;;;;;;;;5048561;28;20029;-68
2022/01/17 13:38:06;;;;;;;44.22;6.35;;;;;;;;;;5042053;28;20151;-69
2022/01/17 13:40:35;;;;;;;44.20;6.35;;;;;;;;;;5045864;28;20043;-68
2022/01/17 13:43:01;;;;;;;52.05;6.10;;;;;;;;;;5047879;28;20313;-69
2022/01/17 13:45:49;;;;;;;49.78;6.65;;;;;;;;;;5048181;28;20035;-68
2022/01/17 13:48:25;;;;;;;51.25;7.50;;;;;;;;;;5046528;28;20103;-68
2022/01/17 13:50:54;;;;;;;52.17;7.25;;;;;;;;;;5046934;28;20085;-68
2022/01/17 13:53:23;;;;;;;55.50;6.50;;;;;;;;;;5047743;28;22078;-68
2022/01/17 13:55:50;;;;;;;59.92;7.57;;;;;;;;;;5048656;28;20032;-69
2022/01/17 13:58:16;;;;;;;56.45;6.95;;;;;;;;;;5079240;28;20028;-68
2022/01/17 14:00:42;;;;;;;55.70;7.43;;;;;;;;;;5048238;28;20453;-68
2022/01/17 14:03:08;;;;;;;44.72;6.03;;;;;;;;;;5046893;28;20028;-69
2022/01/17 14:05:35;;;;;;;56.28;7.93;;;;;;;;;;5047631;28;20032;-70
2022/01/17 14:08:13;;;;;;;52.63;6.68;;;;;;;;;;5047585;28;20039;-69
2022/01/17 14:10:58;;;;;;;42.47;6.57;;;;;;;;;;5047418;28;20033;-69
2022/01/17 14:13:26;;;;;;;49.28;7.15;;;;;;;;;;5048159;28;20028;-68
2022/01/17 14:15:52;;;;;;;55.05;7.78;;;;;;;;;;5061493;28;20386;-68
2022/01/17 14:18:18;;;;;;;59.58;7.68;;;;;;;;;;5045883;28;20233;-68
2022/01/17 14:20:52;;;;;;;53.35;7.18;;;;;;;;;;5047018;28;20111;-68
2022/01/17 14:23:26;;;;;;;52.92;6.90;;;;;;;;;;5047046;28;20068;-69
2022/01/17 14:25:55;;;;;;;53.65;7.25;;;;;;;;;;5047662;28;20078;-68
2022/01/17 14:28:23;;;;;;;47.50;6.35;;;;;;;;;;5064524;28;20020;-68
2022/01/17 14:30:49;;;;;;;51.72;7.18;;;;;;;;;;5046802;28;20033;-68
2022/01/17 14:33:16;;;;;;;60.80;7.32;;;;;;;;;;5046878;28;20040;-68
2022/01/17 14:36:00;;;;;;;48.42;7.43;;;;;;;;;;5047276;28;20028;-68
2022/01/17 14:38:28;;;;;;;57.95;7.82;;;;;;;;;;5047361;28;20784;-68
2022/01/17 14:40:56;;;;;;;50.63;6.03;;;;;;;;;;5046245;28;20032;-68
2022/01/17 14:43:33;;;;;;;50.70;7.57;;;;;;;;;;5046780;28;20078;-68
2022/01/17 14:46:02;;;;;;;65.97;7.32;;;;;;;;;;5046819;28;20032;-70
2022/01/17 14:48:33;;;;;;;72.20;8.73;;;;;;;;;;5078805;28;20573;-67
2022/01/17 14:51:16;;;;;;;60.55;8.23;;;;;;;;;;5045841;28;20033;-67
2022/01/17 14:53:42;;;;;;;57.90;8.05;;;;;;;;;;5040366;28;20028;-68
2022/01/17 15:01:43;;;;;;;66.70;8.48;;;;;;;;;;5046863;28;20035;-68
2022/01/17 15:04:08;;;;;;;60.65;7.82;;;;;;;;;;5045960;28;20109;-67
2022/01/17 15:06:34;;;;;;;61.63;7.20;;;;;;;;;;5047305;28;20528;-68
2022/01/17 15:09:01;;;;;;;62.45;7.65;;;;;;;;;;5046501;28;20041;-68
2022/01/17 15:11:27;;;;;;;65.18;8.32;;;;;;;;;;5047113;28;20060;-67
2022/01/17 15:13:55;;;;;;;52.55;7.97;;;;;;;;;;5058988;28;20076;-68
2022/01/17 15:16:21;;;;;;;50.33;7.05;;;;;;;;;;5046658;28;20634;-68
2022/01/17 15:18:48;;;;;;;59.75;7.63;;;;;;;;;;5046551;28;20069;-68